createdAt,value
2019-02-23T00:01:03.325Z,54.90
2019-02-23T00:03:35.946Z,55.10
2019-02-23T00:06:06.989Z,54.80
2019-02-23T00:08:38.094Z,54.70
2019-02-23T00:11:08.933Z,54.90
2019-02-23T00:13:40.061Z,55.10
2019-02-23T00:16:10.960Z,55.10
2019-02-23T00:18:42.098Z,55.20
2019-02-23T00:21:12.877Z,55.20
2019-02-23T00:23:43.786Z,55.30
2019-02-23T00:26:14.598Z,55.20
2019-02-23T00:28:45.681Z,55.20
2019-02-23T00:31:16.601Z,55.20
2019-02-23T00:33:47.453Z,55.30
2019-02-23T00:36:18.256Z,55.30
2019-02-23T00:38:49.210Z,55.60
2019-02-23T00:41:20.099Z,55.90
2019-02-23T00:43:51.645Z,55.90
2019-02-23T00:46:22.656Z,56.00
2019-02-23T00:48:53.624Z,55.80
2019-02-23T00:51:24.446Z,55.60
2019-02-23T00:53:55.394Z,55.60
2019-02-23T00:56:26.197Z,55.60
2019-02-23T00:58:58.100Z,55.60
2019-02-23T01:01:28.929Z,55.50
2019-02-23T01:03:59.907Z,55.50
2019-02-23T01:06:30.851Z,55.50
2019-02-23T01:09:01.751Z,55.40
2019-02-23T01:11:34.324Z,55.30
2019-02-23T01:14:05.386Z,55.20
2019-02-23T01:16:36.211Z,55.30
2019-02-23T01:19:07.357Z,55.10
2019-02-23T01:21:38.250Z,55.20
2019-02-23T01:24:09.200Z,55.40
2019-02-23T01:26:42.962Z,55.40
2019-02-23T01:29:15.006Z,55.50
2019-02-23T01:31:45.770Z,55.40
2019-02-23T01:34:16.724Z,55.50
2019-02-23T01:36:47.641Z,55.50
2019-02-23T01:39:19.893Z,55.70
2019-02-23T01:41:50.664Z,55.70
2019-02-23T01:44:21.604Z,55.80
2019-02-23T01:46:52.561Z,55.90
2019-02-23T01:49:23.531Z,55.80
2019-02-23T01:51:54.444Z,55.60
2019-02-23T01:54:25.356Z,55.50
2019-02-23T01:56:56.201Z,55.80
2019-02-23T01:59:27.039Z,55.90
2019-02-23T02:01:57.998Z,56.00
2019-02-23T02:04:29.057Z,56.00
2019-02-23T02:07:00.108Z,55.90
2019-02-23T02:09:30.981Z,55.80
2019-02-23T02:12:01.919Z,55.40
2019-02-23T02:14:32.799Z,55.40
2019-02-23T02:17:04.680Z,55.40
2019-02-23T02:19:35.745Z,55.50
2019-02-23T02:22:07.745Z,55.60
2019-02-23T02:24:39.707Z,55.80
2019-02-23T02:27:10.621Z,56.10
2019-02-23T02:29:41.726Z,56.30
2019-02-23T02:32:12.657Z,56.40
2019-02-23T02:34:43.681Z,56.40
2019-02-23T02:37:14.427Z,56.40
2019-02-23T02:39:45.250Z,56.30
2019-02-23T02:42:16.187Z,56.30
2019-02-23T02:44:46.969Z,56.20
2019-02-23T02:47:17.716Z,56.10
2019-02-23T02:49:48.608Z,56.00
2019-02-23T02:52:19.488Z,56.00
2019-02-23T02:54:50.922Z,56.10
2019-02-23T02:57:21.769Z,56.10
2019-02-23T02:59:52.657Z,56.00
2019-02-23T03:02:23.701Z,56.10
2019-02-23T03:04:54.460Z,56.20
2019-02-23T03:07:25.337Z,56.20
2019-02-23T03:09:56.132Z,56.20
2019-02-23T03:12:27.065Z,56.00
2019-02-23T03:14:58.183Z,56.00
2019-02-23T03:17:32.186Z,56.00
2019-02-23T03:20:03.130Z,56.00
2019-02-23T03:22:34.006Z,55.90
2019-02-23T03:25:05.095Z,56.00
2019-02-23T03:27:35.816Z,55.90
2019-02-23T03:30:08.252Z,55.80
2019-02-23T03:32:39.088Z,55.90
2019-02-23T03:35:11.115Z,55.90
2019-02-23T03:37:41.909Z,55.80
2019-02-23T03:40:12.836Z,55.80
2019-02-23T03:42:43.610Z,55.70
2019-02-23T03:45:14.406Z,55.80
2019-02-23T03:47:45.186Z,55.70
2019-02-23T03:50:16.222Z,55.70
2019-02-23T03:52:46.973Z,55.70
2019-02-23T03:55:17.790Z,55.70
2019-02-23T03:57:51.745Z,55.80
2019-02-23T04:00:22.758Z,55.90
2019-02-23T04:02:53.568Z,56.00
2019-02-23T04:05:24.440Z,56.50
2019-02-23T04:07:55.194Z,56.80
2019-02-23T04:10:26.057Z,56.90
2019-02-23T04:12:56.848Z,57.00
2019-02-23T04:15:27.670Z,57.20
2019-02-23T04:17:58.674Z,57.30
2019-02-23T04:20:29.616Z,57.30
2019-02-23T04:23:00.576Z,57.50
2019-02-23T04:25:31.581Z,57.50
2019-02-23T04:28:02.514Z,57.60
2019-02-23T04:30:33.402Z,57.40
2019-02-23T04:33:04.211Z,57.30
2019-02-23T04:35:35.149Z,57.10
2019-02-23T04:38:06.028Z,56.80
2019-02-23T04:40:36.902Z,56.80
2019-02-23T04:43:07.672Z,57.50
2019-02-23T04:45:38.728Z,56.80
2019-02-23T04:48:09.580Z,56.80
2019-02-23T04:50:40.610Z,56.60
2019-02-23T04:53:11.470Z,56.70
2019-02-23T04:55:42.372Z,57.00
2019-02-23T04:58:13.153Z,57.00
2019-02-23T05:00:45.004Z,57.10
2019-02-23T05:03:17.129Z,56.60
2019-02-23T05:05:49.183Z,56.30
2019-02-23T05:08:19.909Z,55.90
2019-02-23T05:10:51.798Z,55.80
2019-02-23T05:13:23.955Z,55.80
2019-02-23T05:15:54.839Z,55.80
2019-02-23T05:18:25.650Z,55.60
2019-02-23T05:20:56.558Z,55.50
2019-02-23T05:23:27.562Z,55.40
2019-02-23T05:25:58.460Z,55.10
2019-02-23T05:28:29.429Z,55.10
2019-02-23T05:31:00.464Z,55.00
2019-02-23T05:33:31.401Z,54.90
2019-02-23T05:36:02.304Z,55.00
2019-02-23T05:38:33.100Z,54.70
2019-02-23T05:41:05.324Z,54.70
2019-02-23T05:43:36.142Z,54.60
2019-02-23T05:46:07.273Z,54.70
2019-02-23T05:48:38.319Z,54.60
2019-02-23T05:51:09.236Z,54.80
2019-02-23T05:53:40.096Z,54.80
2019-02-23T05:56:13.888Z,54.80
2019-02-23T05:58:43.446Z,54.80
2019-02-23T06:01:14.524Z,54.80
2019-02-23T06:03:45.547Z,54.70
2019-02-23T06:06:16.608Z,54.70
2019-02-23T06:08:47.458Z,54.70
2019-02-23T06:11:18.537Z,54.30
2019-02-23T06:13:49.603Z,53.70
2019-02-23T06:16:20.680Z,53.70
2019-02-23T06:18:51.650Z,53.60
2019-02-23T06:21:22.610Z,53.30
2019-02-23T06:23:53.507Z,53.20
2019-02-23T06:26:57.137Z,53.10
2019-02-23T06:29:30.828Z,52.90
2019-02-23T06:32:01.880Z,52.70
2019-02-23T06:34:33.760Z,52.10
2019-02-23T06:37:04.783Z,52.20
2019-02-23T06:39:35.681Z,52.40
2019-02-23T06:42:06.724Z,51.80
2019-02-23T06:44:37.684Z,51.40
2019-02-23T06:47:08.861Z,51.70
2019-02-23T06:49:39.933Z,51.10
2019-02-23T06:52:10.866Z,51.50
2019-02-23T06:54:41.809Z,51.00
2019-02-23T06:57:12.947Z,51.20
2019-02-23T06:59:44.795Z,50.80
2019-02-23T07:02:15.912Z,51.10
2019-02-23T07:04:48.297Z,50.90
2019-02-23T07:07:19.386Z,51.10
2019-02-23T07:09:51.497Z,51.00
2019-02-23T07:12:23.584Z,51.00
2019-02-23T07:14:54.638Z,51.00
2019-02-23T07:17:37.842Z,50.80
2019-02-23T07:20:09.535Z,50.50
2019-02-23T07:22:40.884Z,50.20
2019-02-23T07:25:11.853Z,50.60
2019-02-23T07:27:43.226Z,49.90
2019-02-23T07:30:14.604Z,49.90
2019-02-23T07:32:45.701Z,49.90
2019-02-23T07:35:16.849Z,50.40
2019-02-23T07:37:47.979Z,49.80
2019-02-23T07:40:19.020Z,50.10
2019-02-23T07:42:50.272Z,50.10
2019-02-23T07:45:21.375Z,50.40
2019-02-23T07:47:52.382Z,49.50
2019-02-23T07:50:23.382Z,49.20
2019-02-23T07:52:54.499Z,49.90
2019-02-23T07:55:25.586Z,49.60
2019-02-23T07:57:56.597Z,49.70
2019-02-23T08:00:27.585Z,49.90
2019-02-23T08:02:58.672Z,49.80
2019-02-23T08:05:29.588Z,49.30
2019-02-23T08:08:00.618Z,49.20
2019-02-23T08:10:31.781Z,48.90
2019-02-23T08:13:03.163Z,48.10
2019-02-23T08:15:34.208Z,47.60
2019-02-23T08:18:05.809Z,48.20
2019-02-23T08:20:38.379Z,46.90
2019-02-23T08:23:09.850Z,47.40
2019-02-23T08:25:40.839Z,46.60
2019-02-23T08:28:11.759Z,46.40
2019-02-23T08:30:42.720Z,45.80
2019-02-23T08:33:13.906Z,45.30
2019-02-23T08:35:44.889Z,45.70
2019-02-23T08:38:16.005Z,45.80
2019-02-23T08:40:46.931Z,45.00
2019-02-23T08:43:20.625Z,45.10
2019-02-23T08:45:50.940Z,45.60
2019-02-23T08:48:22.937Z,45.60
2019-02-23T08:50:53.895Z,45.40
2019-02-23T08:53:24.901Z,45.60
2019-02-23T08:55:56.199Z,45.00
2019-02-23T08:58:27.313Z,44.60
2019-02-23T09:00:58.128Z,44.10
2019-02-23T09:03:29.622Z,43.80
2019-02-23T09:06:01.050Z,43.90
2019-02-23T09:08:32.160Z,43.60
2019-02-23T09:11:03.090Z,43.90
2019-02-23T09:13:34.134Z,43.60
2019-02-23T09:16:05.062Z,42.60
2019-02-23T09:18:36.609Z,42.30
2019-02-23T09:21:07.748Z,39.60
2019-02-23T09:23:39.880Z,39.30
2019-02-23T09:26:10.919Z,39.30
2019-02-23T09:28:41.967Z,38.20
2019-02-23T09:31:14.308Z,37.40
2019-02-23T09:33:45.418Z,36.80
2019-02-23T09:36:16.404Z,37.10
2019-02-23T09:38:47.712Z,37.60
2019-02-23T09:41:18.708Z,37.50
2019-02-23T09:43:50.509Z,37.30
2019-02-23T09:46:21.769Z,35.10
2019-02-23T09:48:52.843Z,35.80
2019-02-23T09:51:24.011Z,35.10
2019-02-23T09:53:55.009Z,35.30
2019-02-23T09:56:25.924Z,35.10
2019-02-23T09:58:57.238Z,34.90
2019-02-23T10:01:28.271Z,33.90
2019-02-23T10:03:59.302Z,33.50
2019-02-23T10:06:30.226Z,34.70
2019-02-23T10:09:01.222Z,35.70
2019-02-23T10:11:33.846Z,34.70
2019-02-23T10:14:07.333Z,34.90
2019-02-23T10:16:37.613Z,35.20
2019-02-23T10:19:08.739Z,35.70
2019-02-23T10:21:39.765Z,36.70
2019-02-23T10:24:10.930Z,37.00
2019-02-23T10:26:41.783Z,36.90
2019-02-23T10:29:12.835Z,36.80
2019-02-23T10:31:44.005Z,36.50
2019-02-23T10:34:15.356Z,36.40
2019-02-23T10:36:47.610Z,36.30
2019-02-23T10:39:19.485Z,36.30
2019-02-23T10:41:50.509Z,37.20
2019-02-23T10:44:21.540Z,35.50
2019-02-23T10:46:52.673Z,34.40
2019-02-23T10:49:23.556Z,34.10
2019-02-23T10:51:55.727Z,34.70
2019-02-23T10:54:28.143Z,34.50
2019-02-23T10:56:59.283Z,36.10
2019-02-23T10:59:30.822Z,34.60
2019-02-23T11:02:02.217Z,34.80
2019-02-23T11:04:33.445Z,35.10
2019-02-23T11:07:04.861Z,34.20
2019-02-23T11:09:38.335Z,34.30
2019-02-23T11:12:09.529Z,34.50
2019-02-23T11:14:40.841Z,33.70
2019-02-23T11:17:12.065Z,32.60
2019-02-23T11:19:43.059Z,32.80
2019-02-23T11:22:14.242Z,33.20
2019-02-23T11:24:45.780Z,32.30
2019-02-23T11:27:16.986Z,31.10
2019-02-23T11:29:48.407Z,30.40
2019-02-23T11:32:19.485Z,30.50
2019-02-23T11:34:51.555Z,30.10
2019-02-23T11:37:23.625Z,30.10
2019-02-23T11:39:55.119Z,28.90
2019-02-23T11:42:25.989Z,28.70
2019-02-23T11:44:57.164Z,28.30
2019-02-23T11:47:28.623Z,28.80
2019-02-23T11:49:59.771Z,29.80
2019-02-23T11:52:31.427Z,29.50
2019-02-23T11:55:02.540Z,29.00
2019-02-23T11:57:33.880Z,27.70
2019-02-23T12:00:05.966Z,27.30
2019-02-23T12:02:37.490Z,26.10
2019-02-23T12:05:09.144Z,25.80
2019-02-23T12:07:39.992Z,24.90
2019-02-23T12:10:12.317Z,25.90
2019-02-23T12:12:43.522Z,24.60
2019-02-23T12:15:15.424Z,25.00
2019-02-23T12:17:46.615Z,25.00
2019-02-23T12:20:18.480Z,25.30
2019-02-23T12:22:51.466Z,26.00
2019-02-23T12:25:23.162Z,26.00
2019-02-23T12:27:54.188Z,26.10
2019-02-23T12:30:25.861Z,26.70
2019-02-23T12:32:57.442Z,26.40
2019-02-23T12:35:28.620Z,25.90
2019-02-23T12:37:59.828Z,26.90
2019-02-23T12:40:31.139Z,26.00
2019-02-23T12:43:02.241Z,26.50
2019-02-23T12:45:33.763Z,27.60
2019-02-23T12:48:05.122Z,26.40
2019-02-23T12:50:36.594Z,26.40
2019-02-23T12:53:08.685Z,27.10
2019-02-23T12:55:39.892Z,26.90
2019-02-23T12:58:10.953Z,27.50
2019-02-23T13:00:42.456Z,27.70
2019-02-23T13:03:13.723Z,26.60
2019-02-23T13:05:44.770Z,27.20
2019-02-23T13:08:15.777Z,26.90
2019-02-23T13:10:49.591Z,27.30
2019-02-23T13:14:08.272Z,26.60
2019-02-23T13:17:14.762Z,26.50
2019-02-23T13:20:15.759Z,25.80
2019-02-23T13:23:21.940Z,25.50
2019-02-23T13:26:13.615Z,25.70
2019-02-23T13:29:31.809Z,25.10
2019-02-23T13:32:45.862Z,24.30
2019-02-23T13:35:43.802Z,24.40
2019-02-23T13:39:03.675Z,24.00
2019-02-23T13:42:09.234Z,23.40
2019-02-23T13:45:04.726Z,21.40
2019-02-23T13:48:21.265Z,22.70
2019-02-23T13:51:25.046Z,23.50
2019-02-23T13:54:38.903Z,24.70
2019-02-23T13:57:53.190Z,24.50
2019-02-23T14:00:45.891Z,24.60
2019-02-23T14:04:03.841Z,25.50
2019-02-23T14:06:47.377Z,25.80
2019-02-23T14:09:58.654Z,26.20
2019-02-23T14:13:05.339Z,26.70
2019-02-23T14:16:17.862Z,27.50
2019-02-23T14:19:19.452Z,27.50
2019-02-23T14:22:14.505Z,27.70
2019-02-23T14:25:47.829Z,27.80
2019-02-23T14:29:01.736Z,27.20
2019-02-23T14:32:08.679Z,27.70
2019-02-23T14:35:03.284Z,28.10
2019-02-23T14:38:09.741Z,28.20
2019-02-23T14:40:54.457Z,27.90
2019-02-23T14:44:02.515Z,28.30
2019-02-23T14:47:00.597Z,27.90
2019-02-23T14:50:11.219Z,27.40
2019-02-23T14:53:31.014Z,26.90
2019-02-23T14:56:39.216Z,27.40
2019-02-23T14:59:39.273Z,28.00
2019-02-23T15:02:43.273Z,28.60
2019-02-23T15:05:37.433Z,28.70
2019-02-23T15:08:52.455Z,28.70
2019-02-23T15:12:16.521Z,28.80
2019-02-23T15:15:35.245Z,29.30
2019-02-23T15:18:56.425Z,29.70
2019-02-23T15:21:50.469Z,30.40
2019-02-23T15:25:12.720Z,31.20
2019-02-23T15:28:37.601Z,31.90
2019-02-23T15:31:31.659Z,31.70
2019-02-23T15:34:46.753Z,31.70
2019-02-23T15:37:37.290Z,32.20
2019-02-23T15:40:37.271Z,31.50
2019-02-23T15:43:38.894Z,30.90
2019-02-23T15:46:45.075Z,30.50
2019-02-23T15:49:34.106Z,31.50
2019-02-23T15:52:07.075Z,32.10
2019-02-23T15:54:38.684Z,31.00
2019-02-23T15:57:09.721Z,31.40
2019-02-23T15:59:40.545Z,31.30
2019-02-23T16:02:11.786Z,31.70
2019-02-23T16:04:42.601Z,31.70
2019-02-23T16:07:13.643Z,32.00
2019-02-23T16:09:44.580Z,32.00
2019-02-23T16:12:15.687Z,31.50
2019-02-23T16:14:46.647Z,31.70
2019-02-23T16:17:17.767Z,32.40
2019-02-23T16:19:48.851Z,31.80
2019-02-23T16:22:19.932Z,32.40
2019-02-23T16:24:50.769Z,32.70
2019-02-23T16:27:21.766Z,32.60
2019-02-23T16:29:52.744Z,32.70
2019-02-23T16:32:23.734Z,32.90
2019-02-23T16:34:54.758Z,33.10
2019-02-23T16:37:25.724Z,33.30
2019-02-23T16:39:57.222Z,33.90
2019-02-23T16:42:28.197Z,33.20
2019-02-23T16:44:59.596Z,33.60
2019-02-23T16:47:30.647Z,33.60
2019-02-23T16:50:02.759Z,33.70
2019-02-23T16:52:40.681Z,33.30
2019-02-23T16:55:24.869Z,33.50
2019-02-23T16:57:57.750Z,33.50
2019-02-23T17:00:31.774Z,33.40
2019-02-23T17:03:16.654Z,33.90
2019-02-23T17:05:49.039Z,33.70
2019-02-23T17:08:21.250Z,33.80
2019-02-23T17:10:56.988Z,33.90
2019-02-23T17:13:29.072Z,34.30
2019-02-23T17:16:01.238Z,34.20
2019-02-23T17:18:33.763Z,34.30
2019-02-23T17:21:05.136Z,34.80
2019-02-23T17:23:36.129Z,34.90
2019-02-23T17:26:07.103Z,34.90
2019-02-23T17:28:38.805Z,34.90
2019-02-23T17:31:09.944Z,35.00
2019-02-23T17:33:41.595Z,35.10
2019-02-23T17:36:12.815Z,34.80
2019-02-23T17:38:44.808Z,34.80
2019-02-23T17:41:16.525Z,34.70
2019-02-23T17:43:48.215Z,34.90
2019-02-23T17:46:20.359Z,35.10
2019-02-23T17:48:52.179Z,35.20
2019-02-23T17:51:23.281Z,35.30
2019-02-23T17:53:54.996Z,35.20
2019-02-23T17:56:26.480Z,35.00
2019-02-23T17:58:58.218Z,35.20
2019-02-23T18:01:29.398Z,35.40
2019-02-23T18:04:00.508Z,35.40
2019-02-23T18:06:31.561Z,35.30
2019-02-23T18:09:02.670Z,35.60
2019-02-23T18:11:35.158Z,35.90
2019-02-23T18:14:06.946Z,35.80
2019-02-23T18:16:37.971Z,35.70
2019-02-23T18:19:09.572Z,35.60
2019-02-23T18:21:40.668Z,35.90
2019-02-23T18:24:11.716Z,35.70
2019-02-23T18:26:42.651Z,35.60
2019-02-23T18:29:13.755Z,35.10
2019-02-23T18:31:45.356Z,35.00
2019-02-23T18:34:16.462Z,34.80
2019-02-23T18:36:47.991Z,34.90
2019-02-23T18:39:19.153Z,35.10
2019-02-23T18:41:50.224Z,35.10
2019-02-23T18:44:21.862Z,35.10
2019-02-23T18:46:54.114Z,35.10
2019-02-23T18:49:26.259Z,35.00
2019-02-23T18:51:58.097Z,34.70
2019-02-23T18:54:30.360Z,34.60
2019-02-23T18:57:02.252Z,34.70
2019-02-23T18:59:34.680Z,34.80
2019-02-23T19:02:06.589Z,34.60
2019-02-23T19:04:38.481Z,34.70
2019-02-23T19:07:10.090Z,34.40
2019-02-23T19:09:41.287Z,34.00
2019-02-23T19:12:12.534Z,33.90
2019-02-23T19:14:44.155Z,34.00
2019-02-23T19:17:15.717Z,33.90
2019-02-23T19:19:47.027Z,33.90
2019-02-23T19:22:19.715Z,34.00
2019-02-23T19:24:51.694Z,33.60
2019-02-23T19:27:23.415Z,33.80
2019-02-23T19:29:54.376Z,33.90
2019-02-23T19:32:25.115Z,34.00
2019-02-23T19:34:55.977Z,33.80
2019-02-23T19:37:26.749Z,33.60
2019-02-23T19:39:57.734Z,34.00
2019-02-23T19:42:28.671Z,33.70
2019-02-23T19:45:00.410Z,33.90
2019-02-23T19:47:34.797Z,33.80
2019-02-23T19:50:16.159Z,34.00
2019-02-23T19:55:47.081Z,33.70
2019-02-23T19:58:18.568Z,33.80
2019-02-23T20:00:50.445Z,33.70
2019-02-23T20:03:22.240Z,33.60
2019-02-23T20:05:53.429Z,34.30
2019-02-23T20:08:24.439Z,34.50
2019-02-23T20:10:55.646Z,34.90
2019-02-23T20:13:26.639Z,34.70
2019-02-23T20:15:58.104Z,34.30
2019-02-23T20:18:29.331Z,34.30
2019-02-23T20:21:00.545Z,34.10
2019-02-23T20:23:31.655Z,34.60
2019-02-23T20:26:02.592Z,34.70
2019-02-23T20:28:33.729Z,34.50
2019-02-23T20:31:04.792Z,34.30
2019-02-23T20:33:36.522Z,34.60
2019-02-23T20:36:07.853Z,34.30
2019-02-23T20:38:39.639Z,34.20
2019-02-23T20:41:10.952Z,34.30
2019-02-23T20:44:30.998Z,34.10
2019-02-23T20:47:02.311Z,33.90
2019-02-23T20:49:34.055Z,34.30
2019-02-23T20:52:05.604Z,34.30
2019-02-23T20:54:37.301Z,34.30
2019-02-23T20:57:13.954Z,33.60
2019-02-23T20:59:42.321Z,33.40
2019-02-23T21:02:14.128Z,33.60
2019-02-23T21:04:45.433Z,33.50
2019-02-23T21:07:16.553Z,33.10
2019-02-23T21:09:47.605Z,33.80
2019-02-23T21:12:18.595Z,34.30
2019-02-23T21:14:50.332Z,33.90
2019-02-23T21:17:21.364Z,34.20
2019-02-23T21:19:52.536Z,34.90
2019-02-23T21:22:23.688Z,34.10
2019-02-23T21:24:54.633Z,34.20
2019-02-23T21:27:25.818Z,35.00
2019-02-23T21:29:56.714Z,34.70
2019-02-23T21:32:27.787Z,34.60
2019-02-23T21:34:58.924Z,34.30
2019-02-23T21:37:30.041Z,34.10
2019-02-23T21:40:01.073Z,34.10
2019-02-23T21:42:33.487Z,34.40
2019-02-23T21:45:04.963Z,34.30
2019-02-23T21:47:36.518Z,34.30
2019-02-23T21:50:09.436Z,34.30
2019-02-23T21:52:42.362Z,34.20
2019-02-23T21:55:14.006Z,34.40
2019-02-23T21:57:45.738Z,34.20
2019-02-23T22:00:17.544Z,34.50
2019-02-23T22:02:49.983Z,33.90
2019-02-23T22:05:21.195Z,34.30
2019-02-23T22:07:52.535Z,34.10
2019-02-23T22:10:23.484Z,34.50
2019-02-23T22:12:54.656Z,35.30
2019-02-23T22:15:28.278Z,34.50
2019-02-23T22:17:59.357Z,34.70
2019-02-23T22:20:30.914Z,34.90
2019-02-23T22:23:02.142Z,35.30
2019-02-23T22:25:33.774Z,35.60
2019-02-23T22:28:05.352Z,36.30
2019-02-23T22:30:36.332Z,35.60
2019-02-23T22:33:07.876Z,35.60
2019-02-23T22:35:39.575Z,35.80
2019-02-23T22:38:10.679Z,36.00
2019-02-23T22:40:41.836Z,35.70
2019-02-23T22:43:14.164Z,35.80
2019-02-23T22:45:45.630Z,36.00
2019-02-23T22:48:16.715Z,36.20
2019-02-23T22:50:48.329Z,36.40
2019-02-23T22:53:19.364Z,36.60
2019-02-23T22:55:50.902Z,36.40
2019-02-23T22:58:23.718Z,36.60
2019-02-23T23:00:58.257Z,36.60
2019-02-23T23:03:31.430Z,36.50
2019-02-23T23:06:03.110Z,36.30
2019-02-23T23:08:34.220Z,36.50
2019-02-23T23:11:05.341Z,36.60
2019-02-23T23:13:36.900Z,37.00
2019-02-23T23:16:09.204Z,37.00
2019-02-23T23:18:41.195Z,36.80
2019-02-23T23:21:12.200Z,37.20
2019-02-23T23:23:43.271Z,37.40
2019-02-23T23:26:14.183Z,36.90
2019-02-23T23:28:45.816Z,37.10
2019-02-23T23:31:19.721Z,37.40
2019-02-23T23:33:50.870Z,37.70
2019-02-23T23:36:22.479Z,37.30
2019-02-23T23:38:53.996Z,36.80
2019-02-23T23:41:24.972Z,37.20
2019-02-23T23:43:56.675Z,37.10
2019-02-23T23:46:27.703Z,36.70
2019-02-23T23:48:58.739Z,36.90
2019-02-23T23:51:29.635Z,37.00
2019-02-23T23:54:01.364Z,37.10
2019-02-23T23:56:32.941Z,37.10
2019-02-23T23:59:04.628Z,37.00
